createdAt,value
2023-05-08T00:00:25.148Z,51.28
2023-05-08T00:02:56.230Z,51.98
2023-05-08T00:05:29.783Z,51.86
2023-05-08T00:08:01.846Z,51.71
2023-05-08T00:10:33.096Z,51.98
2023-05-08T00:13:03.935Z,52.00
2023-05-08T00:15:34.699Z,51.79
2023-05-08T00:18:05.954Z,52.14
2023-05-08T00:20:39.491Z,52.31
2023-05-08T00:23:10.316Z,52.54
2023-05-08T00:25:41.150Z,52.72
2023-05-08T00:28:12.013Z,52.85
2023-05-08T00:30:43.538Z,52.64
2023-05-08T00:33:14.664Z,52.71
2023-05-08T00:35:48.075Z,52.97
2023-05-08T00:38:19.034Z,53.35
2023-05-08T00:40:49.775Z,53.64
2023-05-08T00:43:25.971Z,53.49
2023-05-08T00:45:57.663Z,53.63
2023-05-08T00:48:31.788Z,53.56
2023-05-08T00:51:08.170Z,53.83
2023-05-08T00:53:41.349Z,53.76
2023-05-08T00:56:14.626Z,53.88
2023-05-08T00:58:46.916Z,54.03
2023-05-08T01:01:18.353Z,54.16
2023-05-08T01:03:49.872Z,54.17
2023-05-08T01:06:23.518Z,54.20
2023-05-08T01:08:54.424Z,54.53
2023-05-08T01:11:31.198Z,54.70
2023-05-08T01:14:15.464Z,54.89
2023-05-08T01:16:49.844Z,54.75
2023-05-08T01:19:43.889Z,55.17
2023-05-08T01:22:37.347Z,55.55
2023-05-08T01:25:36.175Z,55.40
2023-05-08T01:28:36.904Z,55.87
2023-05-08T01:31:15.267Z,55.53
2023-05-08T01:33:53.148Z,55.81
2023-05-08T01:36:31.692Z,55.99
2023-05-08T01:39:13.296Z,56.21
2023-05-08T01:41:46.628Z,56.52
2023-05-08T01:44:21.364Z,57.76
2023-05-08T01:46:54.305Z,57.34
2023-05-08T01:49:31.805Z,57.72
2023-05-08T01:52:07.637Z,57.45
2023-05-08T01:54:46.110Z,58.09
2023-05-08T01:57:18.978Z,58.60
2023-05-08T01:59:52.960Z,59.07
2023-05-08T02:02:25.577Z,58.63
2023-05-08T02:04:59.714Z,58.75
2023-05-08T02:07:32.021Z,59.16
2023-05-08T02:10:03.840Z,59.16
2023-05-08T02:12:40.131Z,59.34
2023-05-08T02:15:14.680Z,59.45
2023-05-08T02:17:47.666Z,59.38
2023-05-08T02:20:23.460Z,59.55
2023-05-08T02:22:55.157Z,59.65
2023-05-08T02:25:27.201Z,59.58
2023-05-08T02:27:58.587Z,59.79
2023-05-08T02:30:30.751Z,60.10
2023-05-08T02:33:03.965Z,60.50
2023-05-08T02:35:38.461Z,60.38
2023-05-08T02:38:11.765Z,60.42
2023-05-08T02:40:47.524Z,60.49
2023-05-08T02:43:18.796Z,60.39
2023-05-08T02:45:53.513Z,60.64
2023-05-08T02:48:26.275Z,61.65
2023-05-08T02:51:08.056Z,61.14
2023-05-08T02:53:43.916Z,61.14
2023-05-08T02:56:26.064Z,61.11
2023-05-08T02:59:13.440Z,61.18
2023-05-08T03:01:52.068Z,61.29
2023-05-08T03:04:29.713Z,61.25
2023-05-08T03:07:04.974Z,61.63
2023-05-08T03:09:43.116Z,61.48
2023-05-08T03:12:18.172Z,61.58
2023-05-08T03:14:58.832Z,61.80
2023-05-08T03:17:32.084Z,61.94
2023-05-08T03:20:08.491Z,62.29
2023-05-08T03:22:43.961Z,62.27
2023-05-08T03:25:17.344Z,62.29
2023-05-08T03:27:48.969Z,62.76
2023-05-08T03:30:21.147Z,62.81
2023-05-08T03:33:02.690Z,63.04
2023-05-08T03:35:34.871Z,62.89
2023-05-08T03:38:08.941Z,63.17
2023-05-08T03:40:42.892Z,63.06
2023-05-08T03:43:15.376Z,63.06
2023-05-08T03:45:47.331Z,63.03
2023-05-08T03:48:18.377Z,63.05
2023-05-08T03:50:49.645Z,63.29
2023-05-08T03:53:23.190Z,65.03
2023-05-08T03:55:54.227Z,64.78
2023-05-08T03:58:31.692Z,63.64
2023-05-08T04:01:11.534Z,61.42
2023-05-08T04:03:57.747Z,59.14
2023-05-08T04:06:45.783Z,57.58
2023-05-08T04:09:31.775Z,55.57
2023-05-08T04:12:08.274Z,54.94
2023-05-08T04:14:46.228Z,54.44
2023-05-08T04:17:20.980Z,53.97
2023-05-08T04:19:59.160Z,53.69
2023-05-08T04:22:32.885Z,53.42
2023-05-08T04:25:10.096Z,53.81
2023-05-08T04:27:41.962Z,53.75
2023-05-08T04:30:14.285Z,54.15
2023-05-08T04:32:46.839Z,54.49
2023-05-08T04:35:19.433Z,54.70
2023-05-08T04:37:52.557Z,54.59
2023-05-08T04:40:26.067Z,54.33
2023-05-08T04:42:57.347Z,54.68
2023-05-08T04:45:28.586Z,54.70
2023-05-08T04:47:59.319Z,55.04
2023-05-08T04:50:30.134Z,54.96
2023-05-08T04:53:01.091Z,55.05
2023-05-08T04:55:34.557Z,54.75
2023-05-08T04:58:05.295Z,54.41
2023-05-08T05:00:37.122Z,54.32
2023-05-08T05:03:08.321Z,54.73
2023-05-08T05:05:39.507Z,53.95
2023-05-08T05:08:11.376Z,52.87
2023-05-08T05:10:44.684Z,52.17
2023-05-08T05:13:15.389Z,51.39
2023-05-08T05:15:48.201Z,50.66
2023-05-08T05:18:19.493Z,49.53
2023-05-08T05:20:50.154Z,48.41
2023-05-08T05:23:21.660Z,47.64
2023-05-08T05:25:55.007Z,46.73
2023-05-08T05:28:26.526Z,46.44
2023-05-08T05:30:57.395Z,46.41
2023-05-08T05:33:28.539Z,45.82
2023-05-08T05:35:59.626Z,46.37
2023-05-08T05:38:30.552Z,46.08
2023-05-08T05:41:04.242Z,45.75
2023-05-08T05:43:35.755Z,46.08
2023-05-08T05:46:10.142Z,46.42
2023-05-08T05:48:42.282Z,47.04
2023-05-08T05:51:13.973Z,46.86
2023-05-08T05:53:45.136Z,46.76
2023-05-08T05:56:18.640Z,46.80
2023-05-08T05:58:49.298Z,46.92
2023-05-08T06:01:20.412Z,47.15
2023-05-08T06:03:51.292Z,47.29
2023-05-08T06:06:22.419Z,46.84
2023-05-08T06:08:53.148Z,46.59
2023-05-08T06:11:29.076Z,46.18
2023-05-08T06:13:59.774Z,45.78
2023-05-08T06:16:30.793Z,45.74
2023-05-08T06:19:01.729Z,45.38
2023-05-08T06:21:32.535Z,45.90
2023-05-08T06:24:03.943Z,45.52
2023-05-08T06:26:37.281Z,44.79
2023-05-08T06:29:07.941Z,44.31
2023-05-08T06:31:38.655Z,44.58
2023-05-08T06:34:09.576Z,45.04
2023-05-08T06:36:40.193Z,44.99
2023-05-08T06:39:11.025Z,44.93
2023-05-08T06:41:44.616Z,44.38
2023-05-08T06:44:16.053Z,44.10
2023-05-08T06:46:46.859Z,42.64
2023-05-08T06:49:18.541Z,42.37
2023-05-08T06:51:49.276Z,40.93
2023-05-08T06:54:21.756Z,40.66
2023-05-08T06:56:56.207Z,39.83
2023-05-08T06:59:27.171Z,39.89
2023-05-08T07:01:57.910Z,39.07
2023-05-08T07:04:30.842Z,39.19
2023-05-08T07:07:02.775Z,39.54
2023-05-08T07:09:33.574Z,38.87
2023-05-08T07:12:07.316Z,38.36
2023-05-08T07:14:38.333Z,37.70
2023-05-08T07:17:09.883Z,37.25
2023-05-08T07:19:41.942Z,37.39
2023-05-08T07:22:12.653Z,36.28
2023-05-08T07:24:43.453Z,35.25
2023-05-08T07:27:17.474Z,34.06
2023-05-08T07:29:48.274Z,33.08
2023-05-08T07:32:19.026Z,32.32
2023-05-08T07:34:49.825Z,31.98
2023-05-08T07:37:20.645Z,31.48
2023-05-08T07:39:51.651Z,31.32
2023-05-08T07:42:25.094Z,30.51
2023-05-08T07:44:55.938Z,31.22
2023-05-08T07:47:26.695Z,30.41
2023-05-08T07:49:57.457Z,29.67
2023-05-08T07:52:28.109Z,30.18
2023-05-08T07:54:59.061Z,29.73
2023-05-08T07:57:39.789Z,29.67
2023-05-08T08:00:12.475Z,28.37
2023-05-08T08:02:48.147Z,27.73
2023-05-08T08:05:18.970Z,26.74
2023-05-08T08:07:49.632Z,26.20
2023-05-08T08:10:20.619Z,26.41
2023-05-08T08:12:54.347Z,25.75
2023-05-08T08:15:25.151Z,25.94
2023-05-08T08:17:55.915Z,25.53
2023-05-08T08:20:26.919Z,25.88
2023-05-08T08:22:58.296Z,24.87
2023-05-08T08:25:29.182Z,26.38
2023-05-08T08:28:02.564Z,25.59
2023-05-08T08:30:33.401Z,25.45
2023-05-08T08:33:04.162Z,25.27
2023-05-08T08:35:36.224Z,24.52
2023-05-08T08:38:06.906Z,24.25
2023-05-08T08:40:42.952Z,24.82
2023-05-08T08:43:16.400Z,25.50
2023-05-08T08:45:47.417Z,26.46
2023-05-08T08:48:19.158Z,26.81
2023-05-08T08:50:53.853Z,27.32
2023-05-08T08:53:27.479Z,26.46
2023-05-08T08:56:01.420Z,27.01
2023-05-08T08:58:39.931Z,26.73
2023-05-08T09:01:12.692Z,26.38
2023-05-08T09:03:43.904Z,26.40
2023-05-08T09:06:16.839Z,25.28
2023-05-08T09:08:47.706Z,24.78
2023-05-08T09:11:18.551Z,25.22
2023-05-08T09:13:51.954Z,23.20
2023-05-08T09:16:22.860Z,24.44
2023-05-08T09:18:53.818Z,24.41
2023-05-08T09:21:25.454Z,24.25
2023-05-08T09:23:59.918Z,24.80
2023-05-08T09:26:32.787Z,24.71
2023-05-08T09:29:20.278Z,23.83
2023-05-08T09:31:52.926Z,24.25
2023-05-08T09:34:28.830Z,23.60
2023-05-08T09:37:13.769Z,23.60
2023-05-08T09:39:46.279Z,24.91
2023-05-08T09:42:17.615Z,25.68
2023-05-08T09:44:52.617Z,25.21
2023-05-08T09:47:24.468Z,25.08
2023-05-08T09:50:02.299Z,24.22
2023-05-08T09:52:38.241Z,23.90
2023-05-08T09:55:12.104Z,24.08
2023-05-08T09:57:54.458Z,24.73
2023-05-08T10:00:29.016Z,24.57
2023-05-08T10:03:00.541Z,23.43
2023-05-08T10:05:33.116Z,25.01
2023-05-08T10:08:22.848Z,23.71
2023-05-08T10:10:53.875Z,23.82
2023-05-08T10:13:24.524Z,23.67
2023-05-08T10:15:59.646Z,22.49
2023-05-08T10:18:38.509Z,22.56
2023-05-08T10:21:11.311Z,22.65
2023-05-08T10:23:43.113Z,22.52
2023-05-08T10:26:17.695Z,21.43
2023-05-08T10:28:58.570Z,21.15
2023-05-08T10:31:34.381Z,21.88
2023-05-08T10:34:06.684Z,21.99
2023-05-08T10:36:39.294Z,21.99
2023-05-08T10:39:10.339Z,21.59
2023-05-08T10:41:42.197Z,21.14
2023-05-08T10:44:13.568Z,23.23
2023-05-08T10:46:54.035Z,23.92
2023-05-08T10:49:33.506Z,24.24
2023-05-08T10:52:16.546Z,24.41
2023-05-08T10:55:12.950Z,24.46
2023-05-08T10:57:43.620Z,25.45
2023-05-08T11:00:15.805Z,25.39
2023-05-08T11:02:52.325Z,26.33
2023-05-08T11:05:23.903Z,26.79
2023-05-08T11:07:58.824Z,27.86
2023-05-08T11:10:37.366Z,28.09
2023-05-08T11:13:08.684Z,28.01
2023-05-08T11:15:40.889Z,27.76
2023-05-08T11:18:14.889Z,27.91
2023-05-08T11:20:57.947Z,28.42
2023-05-08T11:23:29.906Z,28.83
2023-05-08T11:26:05.056Z,29.40
2023-05-08T11:28:40.195Z,29.54
2023-05-08T11:31:11.903Z,29.95
2023-05-08T11:33:45.210Z,30.34
2023-05-08T11:36:17.448Z,30.77
2023-05-08T11:39:13.105Z,31.48
2023-05-08T11:41:43.566Z,32.18
2023-05-08T11:44:22.837Z,31.92
2023-05-08T11:46:55.868Z,32.26
2023-05-08T11:49:30.388Z,32.90
2023-05-08T11:52:04.096Z,33.52
2023-05-08T11:54:35.058Z,32.92
2023-05-08T11:57:06.221Z,33.39
2023-05-08T11:59:39.848Z,33.24
2023-05-08T12:02:10.730Z,33.00
2023-05-08T12:04:50.646Z,33.81
2023-05-08T12:07:21.865Z,33.49
2023-05-08T12:09:52.618Z,33.51
2023-05-08T12:12:23.471Z,33.57
2023-05-08T12:14:54.365Z,33.54
2023-05-08T12:17:25.321Z,33.73
2023-05-08T12:20:04.452Z,34.18
2023-05-08T12:22:35.534Z,34.00
2023-05-08T12:25:07.421Z,33.77
2023-05-08T12:27:39.667Z,34.78
2023-05-08T12:30:12.927Z,34.56
2023-05-08T12:32:45.226Z,35.26
2023-05-08T12:35:19.476Z,35.74
2023-05-08T12:37:50.444Z,35.43
2023-05-08T12:40:30.060Z,36.25
2023-05-08T12:43:03.795Z,36.07
2023-05-08T12:45:37.081Z,36.70
2023-05-08T12:48:09.867Z,37.23
2023-05-08T12:50:45.994Z,38.17
2023-05-08T12:53:18.537Z,39.71
2023-05-08T12:55:55.541Z,40.11
2023-05-08T12:58:29.243Z,41.41
2023-05-08T13:01:10.333Z,42.01
2023-05-08T13:03:41.393Z,41.48
2023-05-08T13:06:23.763Z,42.54
2023-05-08T13:08:58.006Z,41.28
2023-05-08T13:11:34.638Z,42.38
2023-05-08T13:14:05.396Z,43.58
2023-05-08T13:16:45.597Z,45.27
2023-05-08T13:19:18.165Z,46.02
2023-05-08T13:21:53.221Z,47.28
2023-05-08T13:24:24.027Z,49.25
2023-05-08T13:26:54.557Z,49.11
2023-05-08T13:29:25.278Z,49.72
2023-05-08T13:31:56.621Z,51.35
2023-05-08T13:34:27.580Z,53.09
2023-05-08T13:37:00.880Z,52.77
2023-05-08T13:39:33.202Z,52.94
2023-05-08T13:42:03.899Z,53.54
2023-05-08T13:44:34.722Z,53.09
2023-05-08T13:47:05.398Z,53.89
2023-05-08T13:49:36.274Z,53.31
2023-05-08T13:52:09.661Z,53.16
2023-05-08T13:54:43.074Z,54.06
2023-05-08T13:57:14.500Z,54.07
2023-05-08T13:59:45.371Z,53.86
2023-05-08T14:02:16.148Z,53.70
2023-05-08T14:04:47.183Z,50.74
2023-05-08T14:07:35.835Z,51.93
2023-05-08T14:10:06.893Z,55.75
2023-05-08T14:12:38.461Z,61.55
2023-05-08T14:15:12.608Z,63.44
2023-05-08T14:17:43.681Z,67.87
2023-05-08T14:20:15.432Z,68.26
2023-05-08T14:22:49.698Z,70.97
2023-05-08T14:25:20.747Z,74.32
2023-05-08T14:27:51.681Z,74.60
2023-05-08T14:30:22.666Z,75.95
2023-05-08T14:32:53.660Z,76.69
2023-05-08T14:35:24.706Z,79.32
2023-05-08T14:37:58.142Z,79.38
2023-05-08T14:40:28.965Z,81.63
2023-05-08T14:42:59.649Z,82.99
2023-05-08T14:45:30.458Z,84.21
2023-05-08T14:48:01.256Z,79.35
2023-05-08T14:50:32.322Z,78.22
2023-05-08T14:53:05.907Z,79.16
2023-05-08T14:55:37.374Z,79.83
2023-05-08T14:58:08.353Z,77.97
2023-05-08T15:00:39.726Z,76.44
2023-05-08T15:03:10.725Z,75.19
2023-05-08T15:05:41.597Z,76.81
2023-05-08T15:08:15.054Z,76.28
2023-05-08T15:10:45.925Z,77.71
2023-05-08T15:13:16.692Z,78.64
2023-05-08T15:15:47.528Z,80.18
2023-05-08T15:18:18.387Z,80.38
2023-05-08T15:20:49.278Z,82.91
2023-05-08T15:23:23.335Z,79.80
2023-05-08T15:25:54.160Z,74.63
2023-05-08T15:28:25.017Z,74.25
2023-05-08T15:30:55.920Z,76.79
2023-05-08T15:33:26.676Z,77.73
2023-05-08T15:35:58.978Z,77.82
2023-05-08T15:38:32.530Z,78.43
2023-05-08T15:41:03.480Z,78.38
2023-05-08T15:43:34.471Z,79.07
2023-05-08T15:46:05.524Z,80.73
2023-05-08T15:48:36.509Z,80.86
2023-05-08T15:51:07.451Z,79.24
2023-05-08T15:53:41.006Z,76.70
2023-05-08T15:56:11.896Z,78.21
2023-05-08T15:58:42.750Z,81.32
2023-05-08T16:01:13.592Z,82.40
2023-05-08T16:03:44.399Z,81.70
2023-05-08T16:06:15.343Z,81.71
2023-05-08T16:08:48.635Z,82.67
2023-05-08T16:11:19.397Z,84.24
2023-05-08T16:13:49.993Z,80.53
2023-05-08T16:16:20.845Z,79.99
2023-05-08T16:18:52.102Z,84.47
2023-05-08T16:21:23.186Z,84.62
2023-05-08T16:23:56.589Z,83.01
2023-05-08T16:26:27.530Z,82.22
2023-05-08T16:28:58.424Z,82.07
2023-05-08T16:31:29.495Z,81.35
2023-05-08T16:34:00.449Z,80.92
2023-05-08T16:36:31.997Z,80.51
2023-05-08T16:39:06.039Z,79.37
2023-05-08T16:41:37.355Z,78.83
2023-05-08T16:44:09.083Z,78.33
2023-05-08T16:46:41.273Z,77.68
2023-05-08T16:49:12.090Z,76.97
2023-05-08T16:51:43.043Z,76.20
2023-05-08T16:54:17.182Z,76.11
2023-05-08T16:56:48.180Z,75.52
2023-05-08T16:59:18.926Z,75.31
2023-05-08T17:01:50.551Z,75.03
2023-05-08T17:04:22.243Z,74.52
2023-05-08T17:06:53.241Z,74.62
2023-05-08T17:09:27.341Z,74.32
2023-05-08T17:11:58.595Z,74.04
2023-05-08T17:14:29.438Z,74.09
2023-05-08T17:17:00.404Z,74.27
2023-05-08T17:19:31.216Z,74.08
2023-05-08T17:22:02.205Z,73.83
2023-05-08T17:24:37.617Z,73.89
2023-05-08T17:27:10.910Z,73.47
2023-05-08T17:29:42.355Z,73.39
2023-05-08T17:32:14.186Z,73.17
2023-05-08T17:34:45.139Z,73.13
2023-05-08T17:37:16.988Z,73.52
2023-05-08T17:39:50.674Z,73.70
2023-05-08T17:42:21.806Z,73.69
2023-05-08T17:44:52.594Z,73.70
2023-05-08T17:47:23.752Z,73.88
2023-05-08T17:49:54.771Z,73.31
2023-05-08T17:52:26.457Z,73.22
2023-05-08T17:55:02.783Z,73.31
2023-05-08T17:57:34.308Z,73.03
2023-05-08T18:00:06.437Z,73.02
2023-05-08T18:02:40.517Z,72.90
2023-05-08T18:05:12.587Z,72.91
2023-05-08T18:07:44.175Z,73.01
2023-05-08T18:10:17.734Z,72.99
2023-05-08T18:12:48.597Z,72.83
2023-05-08T18:15:19.485Z,72.35
2023-05-08T18:17:52.194Z,72.62
2023-05-08T18:20:23.901Z,72.67
2023-05-08T18:22:54.776Z,72.74
2023-05-08T18:25:28.223Z,72.50
2023-05-08T18:27:59.250Z,72.39
2023-05-08T18:30:30.016Z,72.33
2023-05-08T18:33:00.879Z,72.25
2023-05-08T18:35:31.663Z,72.19
2023-05-08T18:38:02.572Z,72.37
2023-05-08T18:40:35.903Z,72.39
2023-05-08T18:43:06.920Z,72.51
2023-05-08T18:45:40.851Z,72.72
2023-05-08T18:48:11.970Z,72.98
2023-05-08T18:50:42.701Z,72.95
2023-05-08T18:53:14.906Z,73.34
2023-05-08T18:55:48.232Z,73.56
2023-05-08T18:58:19.231Z,73.61
2023-05-08T19:00:50.162Z,73.11
2023-05-08T19:03:21.398Z,73.36
2023-05-08T19:05:52.224Z,73.29
2023-05-08T19:08:23.185Z,73.71
2023-05-08T19:10:56.614Z,73.71
2023-05-08T19:13:27.621Z,73.50
2023-05-08T19:15:58.579Z,73.17
2023-05-08T19:18:29.379Z,73.48
2023-05-08T19:21:00.161Z,73.38
2023-05-08T19:23:30.967Z,73.64
2023-05-08T19:26:04.549Z,73.70
2023-05-08T19:28:35.287Z,73.86
2023-05-08T19:31:06.123Z,73.74
2023-05-08T19:33:37.176Z,73.82
2023-05-08T19:36:08.283Z,73.70
2023-05-08T19:38:40.778Z,73.81
2023-05-08T19:41:14.704Z,73.98
2023-05-08T19:43:45.553Z,74.34
2023-05-08T19:46:16.499Z,74.29
2023-05-08T19:48:47.475Z,74.29
2023-05-08T19:51:18.503Z,74.32
2023-05-08T19:53:49.351Z,74.19
2023-05-08T19:56:22.999Z,74.16
2023-05-08T19:58:54.333Z,74.27
2023-05-08T20:01:25.162Z,74.36
2023-05-08T20:03:58.931Z,74.47
2023-05-08T20:06:31.261Z,74.71
2023-05-08T20:09:01.967Z,74.52
2023-05-08T20:11:35.378Z,74.70
2023-05-08T20:14:06.104Z,75.03
2023-05-08T20:16:36.986Z,74.80
2023-05-08T20:19:07.804Z,74.96
2023-05-08T20:21:38.581Z,74.78
2023-05-08T20:24:09.986Z,74.76
2023-05-08T20:26:43.455Z,74.64
2023-05-08T20:29:14.213Z,74.90
2023-05-08T20:31:45.026Z,74.85
2023-05-08T20:34:15.823Z,75.09
2023-05-08T20:36:46.830Z,74.95
2023-05-08T20:39:17.697Z,75.08
2023-05-08T20:41:51.137Z,75.35
2023-05-08T20:44:21.771Z,75.41
2023-05-08T20:46:52.549Z,75.37
2023-05-08T20:49:23.476Z,75.60
2023-05-08T20:51:54.260Z,75.62
2023-05-08T20:54:25.234Z,75.72
2023-05-08T20:56:58.822Z,75.73
2023-05-08T20:59:29.616Z,75.83
2023-05-08T21:02:00.674Z,75.71
2023-05-08T21:04:31.537Z,75.50
2023-05-08T21:07:02.819Z,75.82
2023-05-08T21:09:33.638Z,75.66
2023-05-08T21:12:07.618Z,75.63
2023-05-08T21:14:39.162Z,75.66
2023-05-08T21:17:10.103Z,75.90
2023-05-08T21:19:40.940Z,75.84
2023-05-08T21:22:14.140Z,75.89
2023-05-08T21:24:46.348Z,75.93
2023-05-08T21:27:19.834Z,76.01
2023-05-08T21:29:50.523Z,76.13
2023-05-08T21:32:21.358Z,76.31
2023-05-08T21:34:52.190Z,76.36
2023-05-08T21:37:23.909Z,76.42
2023-05-08T21:39:54.686Z,76.60
2023-05-08T21:42:28.877Z,76.70
2023-05-08T21:44:59.880Z,76.93
2023-05-08T21:47:30.962Z,76.92
2023-05-08T21:50:01.818Z,76.96
2023-05-08T21:52:34.399Z,77.35
2023-05-08T21:55:08.850Z,77.62
2023-05-08T21:57:42.393Z,77.64
2023-05-08T22:00:14.449Z,77.46
2023-05-08T22:02:51.365Z,77.60
2023-05-08T22:05:22.213Z,77.75
2023-05-08T22:07:53.108Z,78.25
2023-05-08T22:10:25.890Z,78.36
2023-05-08T22:12:59.386Z,78.54
2023-05-08T22:15:31.152Z,78.56
2023-05-08T22:18:03.065Z,79.04
2023-05-08T22:20:34.213Z,78.97
2023-05-08T22:23:05.002Z,79.59
2023-05-08T22:25:35.901Z,79.29
2023-05-08T22:28:09.312Z,79.20
2023-05-08T22:30:40.141Z,79.93
2023-05-08T22:33:11.044Z,80.13
2023-05-08T22:35:41.887Z,80.05
2023-05-08T22:38:12.696Z,80.72
2023-05-08T22:40:44.125Z,80.95
2023-05-08T22:43:17.711Z,81.24
2023-05-08T22:45:48.482Z,80.80
2023-05-08T22:48:19.436Z,77.05
2023-05-08T22:50:50.232Z,78.31
2023-05-08T22:53:21.036Z,84.15
2023-05-08T22:55:51.804Z,88.10
2023-05-08T22:58:27.564Z,90.65
2023-05-08T23:00:59.891Z,92.61
2023-05-08T23:03:30.970Z,94.43
2023-05-08T23:06:01.709Z,96.54
2023-05-08T23:08:32.566Z,97.09
2023-05-08T23:11:03.565Z,97.44
2023-05-08T23:13:37.949Z,98.15
2023-05-08T23:16:09.992Z,97.53
2023-05-08T23:18:40.771Z,98.05
2023-05-08T23:21:12.120Z,97.61
2023-05-08T23:23:42.993Z,98.01
2023-05-08T23:26:13.906Z,99.11
2023-05-08T23:28:47.386Z,99.32
2023-05-08T23:31:18.120Z,99.29
2023-05-08T23:33:48.968Z,99.64
2023-05-08T23:36:19.714Z,99.53
2023-05-08T23:38:50.579Z,98.82
2023-05-08T23:41:21.306Z,99.08
2023-05-08T23:43:55.092Z,98.78
2023-05-08T23:46:26.161Z,98.61
2023-05-08T23:48:57.178Z,99.33
2023-05-08T23:51:28.035Z,99.96
2023-05-08T23:53:58.838Z,100.00
2023-05-08T23:56:29.976Z,100.00
2023-05-08T23:59:03.374Z,100.00
